Time;durP1;ratioP1;P1;durP2;ratioP2;P2;SDS_P1;SDS_P2;PMS_P1;PMS_P2;Temp;Humidity;BMP_temperature;BMP_pressure;BME280_temperature;BME280_humidity;BME280_pressure;Samples;Min_cycle;Max_cycle;Signal;HPM_P1;HPM_P2
2022/04/11 00:01:39;;;;;;;7.43;4.15;;;0.70;99.90;;;;;;4952948;29;20036;-77
2022/04/11 00:04:08;;;;;;;5.80;3.55;;;0.70;99.90;;;;;;4937328;29;20530;-78
2022/04/11 00:06:33;;;;;;;6.55;4.05;;;0.60;99.90;;;;;;4952506;29;20085;-78
2022/04/11 00:08:59;;;;;;;8.18;4.07;;;0.60;99.90;;;;;;4952701;29;20155;-77
2022/04/11 00:11:25;;;;;;;8.95;3.97;;;0.60;99.90;;;;;;4936356;29;20039;-78
2022/04/11 00:13:53;;;;;;;6.78;4.00;;;0.60;99.90;;;;;;4936375;29;20053;-78
2022/04/11 00:16:28;;;;;;;6.68;3.88;;;0.60;99.90;;;;;;4952178;29;20490;-78
2022/04/11 00:18:54;;;;;;;4.80;3.83;;;0.60;99.90;;;;;;4936215;29;20561;-78
2022/04/11 00:21:26;;;;;;;5.38;3.80;;;0.50;99.90;;;;;;4936539;29;20039;-78
2022/04/11 00:23:52;;;;;;;11.63;4.53;;;0.50;99.90;;;;;;4951906;29;20102;-78
2022/04/11 00:26:20;;;;;;;6.75;4.60;;;0.50;99.90;;;;;;4968063;28;20055;-77
2022/04/11 00:28:48;;;;;;;7.88;4.63;;;0.50;99.90;;;;;;4951763;29;20050;-78
2022/04/11 00:31:18;;;;;;;7.35;4.35;;;0.50;99.90;;;;;;4935085;29;20091;-77
2022/04/11 00:33:44;;;;;;;6.65;4.75;;;0.50;99.90;;;;;;4952032;29;20051;-77
2022/04/11 00:36:13;;;;;;;7.47;4.85;;;0.60;99.90;;;;;;4936402;29;20113;-78
2022/04/11 00:38:41;;;;;;;8.23;4.95;;;0.60;99.90;;;;;;4951021;28;20486;-77
2022/04/11 00:41:07;;;;;;;5.93;4.40;;;0.60;99.90;;;;;;4936166;29;20121;-78
2022/04/11 00:43:41;;;;;;;6.88;4.47;;;0.60;99.90;;;;;;4951869;29;20545;-77
2022/04/11 00:46:10;;;;;;;6.35;4.97;;;0.60;99.90;;;;;;4951723;29;20043;-78
2022/04/11 00:48:42;;;;;;;9.43;5.00;;;0.60;99.90;;;;;;4937182;29;20043;-78
2022/04/11 00:51:26;;;;;;;8.80;5.75;;;0.60;99.90;;;;;;4956103;29;20074;-78
2022/04/11 00:54:00;;;;;;;8.38;5.38;;;0.60;99.90;;;;;;4955841;29;20406;-77
2022/04/11 00:56:38;;;;;;;9.70;5.85;;;0.60;99.90;;;;;;4955924;29;20031;-78
2022/04/11 00:59:06;;;;;;;7.25;5.18;;;0.60;99.90;;;;;;4956189;29;20043;-78
2022/04/11 01:01:42;;;;;;;9.15;5.60;;;0.60;99.90;;;;;;4956051;29;20039;-77
2022/04/11 01:04:23;;;;;;;7.30;4.95;;;0.70;99.90;;;;;;4956618;29;20047;-78
2022/04/11 01:06:55;;;;;;;6.68;4.68;;;0.60;99.90;;;;;;4940493;29;20504;-77
2022/04/11 01:09:22;;;;;;;7.70;4.90;;;0.60;99.90;;;;;;4956387;28;20047;-78
2022/04/11 01:11:52;;;;;;;6.97;6.28;;;0.60;99.90;;;;;;4940532;29;20088;-78
2022/04/11 01:14:21;;;;;;;6.28;5.20;;;0.60;99.90;;;;;;4940451;29;20027;-77
2022/04/11 01:16:53;;;;;;;12.43;5.68;;;0.50;99.90;;;;;;4940150;29;20051;-77
2022/04/11 01:19:21;;;;;;;9.38;5.00;;;0.50;99.90;;;;;;4940362;29;20047;-78
2022/04/11 01:21:52;;;;;;;7.47;4.97;;;0.40;99.90;;;;;;4957415;29;20122;-78
2022/04/11 01:24:23;;;;;;;7.18;4.55;;;0.40;99.90;;;;;;4946979;29;20107;-78
2022/04/11 01:27:02;;;;;;;7.53;4.97;;;0.30;99.90;;;;;;4962970;29;20032;-77
2022/04/11 01:29:40;;;;;;;8.07;5.47;;;0.30;99.90;;;;;;4942734;29;20051;-77
2022/04/11 01:32:24;;;;;;;10.68;5.63;;;0.30;99.90;;;;;;4939842;29;20047;-77
2022/04/11 01:35:00;;;;;;;7.88;5.50;;;0.40;99.90;;;;;;4939743;29;20497;-77
2022/04/11 01:37:36;;;;;;;7.00;5.20;;;0.50;99.90;;;;;;4955965;29;20039;-77
2022/04/11 01:40:06;;;;;;;9.20;5.32;;;0.40;99.90;;;;;;4970250;28;20043;-77
2022/04/11 01:42:42;;;;;;;10.35;5.88;;;0.50;99.90;;;;;;4936225;29;20535;-77
2022/04/11 01:45:10;;;;;;;8.80;5.38;;;0.60;99.90;;;;;;4955005;29;20152;-78
2022/04/11 01:47:53;;;;;;;6.97;5.05;;;0.60;99.90;;;;;;4970017;28;20470;-77
2022/04/11 01:50:24;;;;;;;10.05;5.68;;;0.70;99.90;;;;;;4938462;29;20047;-77
2022/04/11 01:52:52;;;;;;;8.43;5.55;;;0.70;99.90;;;;;;4954645;29;20043;-77
2022/04/11 01:55:20;;;;;;;9.82;5.65;;;0.70;99.90;;;;;;4938549;29;20043;-77
2022/04/11 01:57:49;;;;;;;9.35;5.40;;;0.70;99.90;;;;;;4954437;29;20146;-77
2022/04/11 02:00:29;;;;;;;8.23;5.47;;;0.70;99.90;;;;;;4953684;28;20059;-77
2022/04/11 02:02:54;;;;;;;8.68;5.28;;;0.60;99.90;;;;;;4954687;29;20081;-77
2022/04/11 02:05:27;;;;;;;7.18;5.47;;;0.70;99.90;;;;;;4954272;29;20043;-77
2022/04/11 02:07:53;;;;;;;8.02;5.28;;;0.70;99.90;;;;;;4954453;29;20058;-77
2022/04/11 02:10:22;;;;;;;7.38;5.28;;;0.70;99.90;;;;;;4954529;29;20043;-77
2022/04/11 02:12:48;;;;;;;6.68;5.32;;;0.70;99.90;;;;;;4954273;29;20070;-77
2022/04/11 02:15:18;;;;;;;7.82;5.05;;;0.60;99.90;;;;;;4954101;29;20043;-77
2022/04/11 02:18:08;;;;;;;7.50;5.60;;;0.60;99.90;;;;;;4953989;29;20052;-77
2022/04/11 02:20:52;;;;;;;6.50;5.07;;;0.60;99.90;;;;;;4955167;29;20074;-78
2022/04/11 02:23:21;;;;;;;7.10;5.05;;;0.60;99.90;;;;;;4939774;29;20053;-77
2022/04/11 02:25:49;;;;;;;6.78;5.20;;;0.50;99.90;;;;;;4939720;29;20406;-77
2022/04/11 02:28:23;;;;;;;6.70;5.22;;;0.50;99.90;;;;;;4954993;29;20072;-77
2022/04/11 02:30:51;;;;;;;11.57;6.00;;;0.60;99.90;;;;;;4955367;29;20043;-77
2022/04/11 02:33:35;;;;;;;7.28;5.63;;;0.60;99.90;;;;;;4956493;29;20501;-78
2022/04/11 02:36:12;;;;;;;7.30;5.55;;;0.60;99.90;;;;;;4947965;29;20053;-77
2022/04/11 02:38:50;;;;;;;5.82;4.93;;;0.60;99.90;;;;;;4966317;29;20050;-77
2022/04/11 02:41:18;;;;;;;5.97;5.03;;;0.60;99.90;;;;;;4966787;29;20043;-77
2022/04/11 02:43:50;;;;;;;8.88;5.45;;;0.60;99.90;;;;;;4966198;29;20114;-77
2022/04/11 02:46:34;;;;;;;7.07;5.30;;;0.60;99.90;;;;;;4966307;29;20043;-78
2022/04/11 02:49:00;;;;;;;7.55;5.50;;;0.50;99.90;;;;;;4965802;29;20078;-78
2022/04/11 02:51:28;;;;;;;7.03;5.20;;;0.50;99.90;;;;;;4940805;29;20058;-78
2022/04/11 02:54:07;;;;;;;6.80;5.00;;;0.50;99.90;;;;;;4938505;29;20053;-78
2022/04/11 02:56:36;;;;;;;7.47;4.93;;;0.40;99.90;;;;;;4938113;29;20047;-78
2022/04/11 02:59:04;;;;;;;7.05;5.45;;;0.30;99.90;;;;;;4938688;29;20129;-78
2022/04/11 03:01:41;;;;;;;7.90;5.15;;;0.30;99.90;;;;;;4938873;29;20043;-78
2022/04/11 03:04:12;;;;;;;5.68;4.95;;;0.30;99.90;;;;;;4954704;29;20485;-78
2022/04/11 03:06:46;;;;;;;7.50;4.88;;;0.20;99.90;;;;;;4954574;29;20498;-78
2022/04/11 03:09:17;;;;;;;7.03;5.22;;;0.20;99.90;;;;;;4918564;29;20083;-78
2022/04/11 03:11:49;;;;;;;8.95;5.53;;;0.20;99.90;;;;;;4946779;28;20082;-78
2022/04/11 03:14:18;;;;;;;8.68;5.43;;;0.10;99.90;;;;;;4938176;29;20298;-78
2022/04/11 03:16:48;;;;;;;6.65;5.20;;;0.10;99.90;;;;;;4951975;29;20529;-78
2022/04/11 03:19:15;;;;;;;8.15;5.53;;;0.10;99.90;;;;;;4938565;29;20042;-78
2022/04/11 03:21:44;;;;;;;7.22;5.28;;;0.00;99.90;;;;;;4939067;29;20090;-78
2022/04/11 03:24:10;;;;;;;6.97;5.50;;;0.00;99.90;;;;;;4937500;29;20134;-78
2022/04/11 03:26:58;;;;;;;7.82;5.60;;;0.10;99.90;;;;;;4954259;29;20127;-78
2022/04/11 03:29:24;;;;;;;7.10;5.45;;;0.10;99.90;;;;;;4954536;29;20031;-78
2022/04/11 03:31:53;;;;;;;7.93;5.43;;;0.10;99.90;;;;;;4938726;29;20043;-77
2022/04/11 03:34:25;;;;;;;7.35;5.32;;;0.00;99.90;;;;;;4937901;29;20126;-78
2022/04/11 03:36:54;;;;;;;7.13;5.55;;;0.10;99.90;;;;;;4938988;29;20043;-77
2022/04/11 03:39:20;;;;;;;7.55;6.05;;;0.00;99.90;;;;;;4955156;28;20210;-78
2022/04/11 03:41:48;;;;;;;7.85;5.47;;;0.10;99.90;;;;;;4954408;29;20050;-77
2022/04/11 03:44:19;;;;;;;9.10;5.63;;;0.10;99.90;;;;;;4953628;29;20190;-77
2022/04/11 03:46:47;;;;;;;6.53;5.18;;;0.10;99.90;;;;;;4953578;29;20035;-77
2022/04/11 03:49:19;;;;;;;6.00;5.05;;;0.10;99.90;;;;;;4958865;29;20039;-77
2022/04/11 03:51:51;;;;;;;7.85;5.85;;;0.10;99.90;;;;;;4953189;29;20050;-79
2022/04/11 03:54:21;;;;;;;7.47;5.85;;;0.10;99.90;;;;;;4939975;29;20043;-77
2022/04/11 03:56:49;;;;;;;9.95;5.65;;;0.10;99.90;;;;;;4936942;29;20577;-77
2022/04/11 03:59:28;;;;;;;7.95;6.07;;;0.10;99.90;;;;;;4952752;29;20039;-77
2022/04/11 04:02:02;;;;;;;8.60;5.53;;;0.10;99.90;;;;;;4952396;29;20101;-77
2022/04/11 04:04:34;;;;;;;8.45;5.65;;;0.20;99.90;;;;;;4952346;29;20490;-77
2022/04/11 04:07:00;;;;;;;8.63;5.80;;;0.20;99.90;;;;;;4951856;29;20051;-77
2022/04/11 04:09:26;;;;;;;9.82;6.10;;;0.20;99.90;;;;;;4952394;29;20047;-77
2022/04/11 04:11:52;;;;;;;9.23;6.28;;;0.30;99.90;;;;;;4936117;29;20335;-77
2022/04/11 04:14:26;;;;;;;10.10;6.32;;;0.30;99.90;;;;;;4937237;29;20134;-78
2022/04/11 04:16:54;;;;;;;6.38;5.50;;;0.40;99.90;;;;;;4951923;29;20441;-78
2022/04/11 04:19:20;;;;;;;8.98;5.93;;;0.40;99.90;;;;;;4936440;29;20039;-78
2022/04/11 04:21:46;;;;;;;9.02;6.20;;;0.50;99.90;;;;;;4937307;29;20035;-78
2022/04/11 04:24:25;;;;;;;7.95;6.40;;;0.60;99.90;;;;;;4935100;29;20078;-77
2022/04/11 04:26:54;;;;;;;9.52;6.95;;;0.60;99.90;;;;;;4952209;29;20047;-77
2022/04/11 04:29:27;;;;;;;9.13;6.00;;;0.70;99.90;;;;;;4952630;29;20043;-77
2022/04/11 04:32:08;;;;;;;8.52;6.03;;;0.70;99.90;;;;;;4952513;29;20039;-77
2022/04/11 04:34:37;;;;;;;8.32;6.82;;;0.80;99.90;;;;;;4952857;29;20134;-77
2022/04/11 04:37:11;;;;;;;10.27;6.75;;;0.80;99.90;;;;;;4937444;29;20039;-77
2022/04/11 04:39:37;;;;;;;9.55;6.72;;;0.80;99.90;;;;;;4952147;29;20047;-77
2022/04/11 04:42:26;;;;;;;9.93;6.32;;;0.90;99.90;;;;;;4957025;29;20110;-77
2022/04/11 04:44:58;;;;;;;10.75;6.68;;;0.90;99.90;;;;;;4937437;29;20101;-77
2022/04/11 04:47:47;;;;;;;9.43;6.40;;;1.10;99.90;;;;;;4914695;28;20051;-77
2022/04/11 04:50:16;;;;;;;12.00;6.47;;;1.10;99.90;;;;;;4953320;29;20043;-78
2022/04/11 04:52:47;;;;;;;9.55;6.50;;;1.10;99.90;;;;;;4937607;29;20075;-78
2022/04/11 04:55:16;;;;;;;9.15;6.38;;;1.20;99.90;;;;;;4937003;29;20043;-77
2022/04/11 04:57:45;;;;;;;8.00;6.55;;;1.20;99.90;;;;;;4953073;29;20039;-77
2022/04/11 05:00:14;;;;;;;8.20;6.07;;;1.30;99.90;;;;;;4951587;29;20043;-77
2022/04/11 05:02:47;;;;;;;10.07;6.10;;;1.30;99.90;;;;;;4952912;29;20334;-77
2022/04/11 05:05:14;;;;;;;9.90;6.32;;;1.40;99.90;;;;;;4953174;29;20043;-77
2022/04/11 05:07:48;;;;;;;9.32;5.90;;;1.40;99.90;;;;;;4936863;29;20125;-77
2022/04/11 05:10:24;;;;;;;9.10;6.40;;;1.30;99.90;;;;;;4952107;29;20043;-77
2022/04/11 05:12:54;;;;;;;7.63;6.32;;;1.40;99.90;;;;;;4935658;29;20089;-77
2022/04/11 05:15:23;;;;;;;10.57;5.85;;;1.50;99.90;;;;;;4936638;29;20035;-79
2022/04/11 05:17:55;;;;;;;9.55;6.03;;;1.50;99.90;;;;;;4950095;28;20050;-77
2022/04/11 05:20:21;;;;;;;7.70;6.05;;;1.60;99.90;;;;;;4968371;28;20039;-77
2022/04/11 05:22:50;;;;;;;9.25;6.47;;;1.60;99.90;;;;;;4950924;29;20508;-76
2022/04/11 05:25:21;;;;;;;12.05;6.35;;;1.70;99.90;;;;;;4951758;28;20421;-76
2022/04/11 05:27:52;;;;;;;9.45;7.18;;;1.70;99.90;;;;;;4936962;29;20098;-76
2022/04/11 05:30:18;;;;;;;7.90;6.07;;;1.80;99.90;;;;;;4934959;29;20043;-75
2022/04/11 05:32:44;;;;;;;11.32;6.60;;;1.80;99.90;;;;;;4950932;29;20150;-76
2022/04/11 05:35:10;;;;;;;9.43;6.05;;;1.90;99.90;;;;;;4952055;28;20055;-76
2022/04/11 05:37:38;;;;;;;10.80;5.88;;;1.90;99.90;;;;;;4954852;29;20070;-76
2022/04/11 05:40:09;;;;;;;8.18;6.78;;;2.00;99.90;;;;;;4954661;29;20556;-76
2022/04/11 05:42:37;;;;;;;9.98;6.63;;;2.00;99.90;;;;;;4954481;29;20047;-76
2022/04/11 05:45:08;;;;;;;9.18;5.85;;;2.20;99.90;;;;;;4938817;29;20139;-76
2022/04/11 05:47:34;;;;;;;10.48;6.75;;;2.20;99.90;;;;;;4954044;29;20039;-75
2022/04/11 05:50:00;;;;;;;11.07;6.40;;;2.30;99.90;;;;;;4936830;29;20039;-75
2022/04/11 05:52:29;;;;;;;17.65;6.22;;;2.30;99.90;;;;;;4938398;29;20134;-77
2022/04/11 05:54:58;;;;;;;11.27;6.40;;;2.40;99.90;;;;;;4956082;29;20035;-77
2022/04/11 05:57:35;;;;;;;8.25;6.22;;;2.50;99.90;;;;;;4940955;29;20047;-78
2022/04/11 06:00:04;;;;;;;8.68;5.90;;;2.60;99.90;;;;;;4960102;29;20415;-77
2022/04/11 06:02:32;;;;;;;6.53;5.18;;;2.70;99.90;;;;;;4960472;29;20043;-77
2022/04/11 06:05:02;;;;;;;8.50;5.95;;;2.70;99.90;;;;;;4959547;29;20043;-78
2022/04/11 06:07:32;;;;;;;7.75;5.32;;;2.80;99.90;;;;;;4951775;29;20118;-77
2022/04/11 06:10:11;;;;;;;9.18;5.72;;;2.80;99.90;;;;;;4957395;29;20047;-77
2022/04/11 06:12:46;;;;;;;10.50;5.90;;;2.90;99.90;;;;;;4961459;29;20043;-77
2022/04/11 06:15:20;;;;;;;12.50;6.00;;;3.00;99.90;;;;;;4939141;29;20626;-77
2022/04/11 06:17:51;;;;;;;14.65;6.47;;;3.10;99.90;;;;;;4938338;29;20043;-76
2022/04/11 06:20:20;;;;;;;14.13;6.65;;;3.10;99.90;;;;;;4938709;29;20044;-78
2022/04/11 06:22:50;;;;;;;;;;;3.20;99.90;;;;;;4929724;29;20375;-78
2022/04/11 06:25:17;;;;;;;6.95;5.00;;;3.30;99.90;;;;;;4945606;29;20382;-77
2022/04/11 06:27:43;;;;;;;8.68;5.93;;;3.50;99.90;;;;;;4953689;29;20401;-79
2022/04/11 06:30:17;;;;;;;7.43;5.55;;;3.60;99.90;;;;;;4953476;29;20050;-79
2022/04/11 06:32:59;;;;;;;7.07;5.38;;;3.70;99.90;;;;;;4953747;29;20047;-78
2022/04/11 06:35:31;;;;;;;6.07;4.65;;;3.80;99.90;;;;;;4954521;29;20552;-79
2022/04/11 06:38:14;;;;;;;9.73;5.13;;;4.00;99.90;;;;;;4938973;29;20039;-79
2022/04/11 06:40:40;;;;;;;9.63;5.30;;;4.10;99.90;;;;;;4953980;29;20541;-81
2022/04/11 06:43:09;;;;;;;7.72;5.22;;;4.20;99.90;;;;;;4938038;29;20122;-79
2022/04/11 06:45:35;;;;;;;8.40;5.43;;;4.40;99.90;;;;;;4937712;28;20078;-79
2022/04/11 06:48:17;;;;;;;8.30;5.65;;;4.50;99.90;;;;;;4953214;29;20156;-79
2022/04/11 06:50:51;;;;;;;8.00;5.45;;;4.60;99.90;;;;;;4953234;29;20047;-79
2022/04/11 06:53:20;;;;;;;8.45;5.28;;;4.70;99.90;;;;;;4938378;29;20035;-79
2022/04/11 06:55:56;;;;;;;7.97;5.10;;;4.80;99.90;;;;;;4938221;29;20058;-80
2022/04/11 06:58:35;;;;;;;9.75;5.53;;;4.90;99.90;;;;;;4937258;29;20458;-79
2022/04/11 07:01:07;;;;;;;8.73;5.93;;;5.10;99.90;;;;;;4954341;29;20114;-80
2022/04/11 07:03:35;;;;;;;7.57;4.93;;;5.20;99.90;;;;;;4953729;29;20398;-79
2022/04/11 07:06:06;;;;;;;9.48;5.43;;;5.40;99.90;;;;;;4953891;29;20043;-80
2022/04/11 07:08:38;;;;;;;9.13;5.88;;;5.50;99.90;;;;;;4969566;28;20102;-79
2022/04/11 07:11:18;;;;;;;10.13;5.13;;;5.60;99.90;;;;;;4934940;29;20103;-80
2022/04/11 07:14:07;;;;;;;;;;;5.70;99.90;;;;;;4954414;29;20532;-80
2022/04/11 07:16:38;;;;;;;8.13;5.70;;;5.90;99.90;;;;;;4938291;29;19965;-80
2022/04/11 07:19:06;;;;;;;9.68;5.78;;;6.00;99.90;;;;;;4954123;29;20046;-79
2022/04/11 07:21:47;;;;;;;8.10;5.88;;;6.20;99.90;;;;;;4954362;29;20038;-80
2022/04/11 07:24:17;;;;;;;8.13;5.88;;;6.30;99.90;;;;;;4954420;29;20057;-80
2022/04/11 07:26:51;;;;;;;8.88;5.95;;;6.40;99.90;;;;;;4954397;29;20138;-80
2022/04/11 07:29:23;;;;;;;8.75;6.28;;;6.50;99.90;;;;;;4966472;29;20139;-80
2022/04/11 07:32:01;;;;;;;9.30;5.90;;;6.60;99.90;;;;;;4959778;28;20086;-80
2022/04/11 07:34:35;;;;;;;7.50;5.68;;;6.60;99.90;;;;;;4957029;29;20043;-79
2022/04/11 07:37:11;;;;;;;8.55;6.70;;;6.70;99.90;;;;;;4972333;28;20546;-80
2022/04/11 07:39:40;;;;;;;8.10;5.85;;;6.80;99.90;;;;;;4956677;29;20062;-80
2022/04/11 07:42:17;;;;;;;9.35;6.18;;;6.90;99.90;;;;;;4956260;29;20130;-80
2022/04/11 07:44:45;;;;;;;9.60;6.35;;;7.00;99.90;;;;;;4957561;29;20054;-80
2022/04/11 07:47:11;;;;;;;8.63;6.10;;;7.10;99.90;;;;;;4954741;29;20063;-80
2022/04/11 07:49:42;;;;;;;8.13;6.35;;;7.20;99.90;;;;;;4953778;29;20047;-79
2022/04/11 07:52:08;;;;;;;7.28;5.90;;;7.30;99.90;;;;;;4955945;29;20070;-79
2022/04/11 07:54:43;;;;;;;10.73;6.05;;;7.50;99.90;;;;;;4956086;29;20409;-79
2022/04/11 07:57:16;;;;;;;9.48;6.95;;;7.60;99.90;;;;;;4956217;28;20183;-79
2022/04/11 07:59:44;;;;;;;10.02;6.70;;;7.70;99.90;;;;;;4924862;29;20113;-79
2022/04/11 08:02:11;;;;;;;9.10;6.50;;;7.90;99.90;;;;;;4956736;29;20054;-80
2022/04/11 08:04:39;;;;;;;8.25;6.35;;;8.00;99.90;;;;;;4957743;29;20402;-80
2022/04/11 08:07:08;;;;;;;9.13;6.18;;;8.00;99.90;;;;;;4957342;29;20099;-80
2022/04/11 08:09:36;;;;;;;8.80;6.63;;;8.10;99.90;;;;;;4956905;29;20035;-81
2022/04/11 08:12:02;;;;;;;8.73;6.45;;;8.20;99.90;;;;;;4956987;29;20394;-80
2022/04/11 08:14:30;;;;;;;8.43;6.50;;;8.40;99.90;;;;;;4941883;29;20039;-80
2022/04/11 08:17:02;;;;;;;10.38;6.78;;;8.50;99.90;;;;;;4942055;29;20094;-81
2022/04/11 08:19:32;;;;;;;10.07;7.70;;;8.60;99.90;;;;;;4955532;29;20078;-80
2022/04/11 08:22:08;;;;;;;7.53;6.40;;;8.80;99.90;;;;;;4941841;29;20047;-80
2022/04/11 08:24:34;;;;;;;9.30;6.43;;;9.00;99.90;;;;;;4958917;29;20101;-81
2022/04/11 08:27:01;;;;;;;11.02;7.68;;;9.10;99.90;;;;;;4958692;29;20425;-81
2022/04/11 08:29:41;;;;;;;9.88;7.18;;;9.20;99.90;;;;;;4958399;29;20039;-81
2022/04/11 08:32:12;;;;;;;9.63;6.90;;;9.50;99.90;;;;;;4958836;29;20040;-80
2022/04/11 08:34:50;;;;;;;8.20;6.18;;;9.80;99.90;;;;;;4958914;29;20043;-80
2022/04/11 08:37:26;;;;;;;9.70;6.82;;;10.30;99.90;;;;;;4958521;29;20107;-80
2022/04/11 08:39:59;;;;;;;13.05;7.13;;;11.20;99.90;;;;;;4958030;29;20032;-81
2022/04/11 08:42:50;;;;;;;8.82;7.07;;;11.90;99.90;;;;;;4953870;28;20059;-81
2022/04/11 08:45:25;;;;;;;8.93;7.73;;;12.70;99.90;;;;;;4925010;29;20062;-81
2022/04/11 08:48:00;;;;;;;8.93;7.05;;;13.40;99.90;;;;;;4923940;29;20047;-80
2022/04/11 08:50:27;;;;;;;9.70;6.68;;;14.20;99.90;;;;;;4955683;29;20082;-81
2022/04/11 08:52:57;;;;;;;8.73;7.18;;;14.80;99.90;;;;;;4924434;29;20054;-81
2022/04/11 08:55:29;;;;;;;8.68;6.72;;;15.30;99.90;;;;;;4955077;29;20043;-81
2022/04/11 08:58:10;;;;;;;8.40;6.60;;;15.60;99.90;;;;;;4955886;29;20039;-81
2022/04/11 09:00:48;;;;;;;8.43;7.05;;;16.00;98.40;;;;;;4955729;29;20153;-81
2022/04/11 09:03:17;;;;;;;7.43;6.72;;;16.10;93.30;;;;;;4937938;29;20047;-81
2022/04/11 09:06:14;;;;;;;8.98;6.35;;;16.30;97.20;;;;;;4956990;29;20054;-81
2022/04/11 09:08:58;;;;;;;8.20;6.78;;;16.70;60.20;;;;;;4955678;28;20043;-81
2022/04/11 09:11:43;;;;;;;7.32;6.63;;;16.40;76.50;;;;;;4960034;29;20054;-81
2022/04/11 09:14:37;;;;;;;;;;;;;;;;;;;;;
2022/04/11 09:17:42;;;;;;;9.45;7.28;;;17.10;61.80;;;;;;4942905;29;20040;-81
2022/04/11 09:20:45;;;;;;;8.43;6.75;;;16.90;71.00;;;;;;4941068;29;20050;-81
2022/04/11 09:23:29;;;;;;;8.23;6.45;;;16.90;80.10;;;;;;4939509;29;20239;-81
2022/04/11 09:26:18;;;;;;;7.28;6.47;;;17.20;76.90;;;;;;4961198;29;20035;-81
2022/04/11 09:29:06;;;;;;;7.32;6.57;;;17.40;73.90;;;;;;4960957;29;20047;-81
2022/04/11 09:31:39;;;;;;;6.88;6.28;;;17.40;55.10;;;;;;4960336;29;20417;-81
2022/04/11 09:34:22;;;;;;;6.93;6.22;;;16.90;57.40;;;;;;4973335;28;20039;-81
2022/04/11 09:37:02;;;;;;;10.18;6.75;;;16.70;57.60;;;;;;4960786;29;20656;-81
2022/04/11 09:39:33;;;;;;;7.15;6.45;;;16.40;64.80;;;;;;4984820;23;20392;-76
2022/04/11 09:41:59;;;;;;;7.57;6.57;;;16.50;71.60;;;;;;4977532;28;20052;-76
2022/04/11 09:44:25;;;;;;;8.10;6.32;;;16.80;74.80;;;;;;4977529;28;20034;-76
2022/04/11 09:46:53;;;;;;;8.95;6.82;;;17.00;69.40;;;;;;4987944;28;20073;-76
2022/04/11 09:49:19;;;;;;;7.03;6.03;;;17.10;61.40;;;;;;4994292;28;20038;-76
2022/04/11 09:52:26;;;;;;;8.07;6.13;;;17.20;69.20;;;;;;4996452;28;20133;-76
2022/04/11 09:54:56;;;;;;;7.72;6.32;;;17.70;51.40;;;;;;4949221;29;20120;-76
2022/04/11 09:57:26;;;;;;;6.38;5.57;;;17.30;57.20;;;;;;4952927;28;20519;-76
2022/04/11 09:59:52;;;;;;;7.93;6.30;;;17.20;52.90;;;;;;4970239;28;20042;-76
2022/04/11 10:02:21;;;;;;;9.30;6.30;;;16.80;57.50;;;;;;4987335;28;20068;-76
2022/04/11 10:04:47;;;;;;;10.38;7.32;;;17.10;56.50;;;;;;4977161;28;20052;-76
2022/04/11 10:07:13;;;;;;;7.75;6.95;;;17.20;53.30;;;;;;4977136;28;20034;-76
2022/04/11 10:09:40;;;;;;;7.38;6.30;;;16.90;57.40;;;;;;4976694;28;20066;-76
2022/04/11 10:12:06;;;;;;;7.97;7.15;;;16.90;55.30;;;;;;4983713;28;20049;-76
2022/04/11 10:14:32;;;;;;;7.88;7.07;;;16.90;54.80;;;;;;4996647;28;20030;-76
2022/04/11 10:17:01;;;;;;;9.73;7.38;;;16.80;54.50;;;;;;4996321;28;20069;-76
2022/04/11 10:19:29;;;;;;;9.27;7.50;;;16.70;56.90;;;;;;4979963;28;20404;-76
2022/04/11 10:21:57;;;;;;;9.73;6.95;;;16.60;60.70;;;;;;4995520;28;20042;-76
2022/04/11 10:24:33;;;;;;;8.75;7.00;;;17.00;53.30;;;;;;4989760;28;20046;-76
2022/04/11 10:27:22;;;;;;;7.90;7.10;;;17.10;52.10;;;;;;4976747;28;20513;-76
2022/04/11 10:29:50;;;;;;;9.15;6.82;;;16.90;52.70;;;;;;5008706;28;20042;-76
2022/04/11 10:32:18;;;;;;;7.63;6.80;;;16.90;51.10;;;;;;4976603;28;20121;-76
2022/04/11 10:34:51;;;;;;;8.75;6.90;;;16.70;55.80;;;;;;5008806;28;20116;-76
2022/04/11 10:37:24;;;;;;;8.18;7.32;;;17.10;50.90;;;;;;4976826;28;20393;-76
2022/04/11 10:39:51;;;;;;;8.57;6.82;;;16.90;55.00;;;;;;4992310;28;20049;-76
2022/04/11 10:42:25;;;;;;;9.45;7.03;;;17.00;57.50;;;;;;4992793;28;20038;-76
2022/04/11 10:44:54;;;;;;;8.32;7.43;;;17.50;55.10;;;;;;4976292;28;20049;-76
2022/04/11 10:47:29;;;;;;;10.63;6.38;;;17.60;56.70;;;;;;4987114;28;20111;-76
2022/04/11 10:49:55;;;;;;;7.60;6.68;;;17.90;50.60;;;;;;4995049;28;20046;-76
2022/04/11 10:52:41;;;;;;;7.68;6.18;;;17.70;52.00;;;;;;4986501;28;20053;-76
2022/04/11 10:55:20;;;;;;;8.88;6.70;;;17.70;54.70;;;;;;4992497;28;20038;-76
2022/04/11 10:57:48;;;;;;;8.35;7.05;;;17.90;53.20;;;;;;4976108;28;20124;-76
2022/04/11 11:00:14;;;;;;;8.15;7.22;;;18.10;50.90;;;;;;5007897;28;20045;-76
2022/04/11 11:02:56;;;;;;;7.63;6.40;;;18.10;53.80;;;;;;5008613;28;20042;-76
2022/04/11 11:05:27;;;;;;;9.43;7.15;;;18.40;55.50;;;;;;5008554;28;20095;-76
2022/04/11 11:08:17;;;;;;;8.82;6.40;;;18.70;56.40;;;;;;4992404;28;20509;-76
2022/04/11 11:10:54;;;;;;;7.22;6.53;;;19.00;50.80;;;;;;4959943;28;20089;-76
2022/04/11 11:13:32;;;;;;;9.27;6.90;;;19.00;54.30;;;;;;5008054;28;20038;-76
2022/04/11 11:16:03;;;;;;;8.45;7.63;;;19.30;54.90;;;;;;4975764;28;20034;-76
2022/04/11 11:18:50;;;;;;;8.95;7.68;;;19.50;54.30;;;;;;4975576;28;20045;-76
2022/04/11 11:21:27;;;;;;;9.48;7.78;;;19.60;51.90;;;;;;4975622;28;20129;-76
2022/04/11 11:24:10;;;;;;;9.05;7.70;;;19.80;54.00;;;;;;4975590;28;20567;-76
2022/04/11 11:26:45;;;;;;;11.27;7.95;;;20.00;53.40;;;;;;4977047;28;20065;-76
2022/04/11 11:29:31;;;;;;;8.93;7.35;;;20.10;54.80;;;;;;4994902;28;20164;-76
2022/04/11 11:32:08;;;;;;;8.02;7.22;;;20.60;52.00;;;;;;4994903;28;20075;-76
2022/04/11 11:34:36;;;;;;;8.90;8.00;;;20.70;48.30;;;;;;4995038;28;20239;-76
2022/04/11 11:37:13;;;;;;;10.73;8.23;;;20.70;51.50;;;;;;4978738;28;20038;-76
2022/04/11 11:39:40;;;;;;;7.88;7.15;;;20.60;49.20;;;;;;4994808;28;20456;-76
2022/04/11 11:42:09;;;;;;;9.00;8.10;;;20.70;52.80;;;;;;4987149;28;20042;-76
2022/04/11 11:44:48;;;;;;;8.95;7.63;;;21.10;48.50;;;;;;5007923;28;20129;-76
2022/04/11 11:47:14;;;;;;;9.75;7.97;;;20.90;46.00;;;;;;5007871;28;20038;-76
2022/04/11 11:49:40;;;;;;;9.00;8.10;;;20.60;45.40;;;;;;5007235;28;20040;-76
2022/04/11 11:52:21;;;;;;;9.75;8.75;;;20.20;48.00;;;;;;4991801;28;20035;-76
2022/04/11 11:54:49;;;;;;;9.80;8.45;;;20.10;48.40;;;;;;4991450;28;20504;-76
2022/04/11 11:57:17;;;;;;;9.23;8.32;;;20.20;50.90;;;;;;4976242;28;20038;-76
2022/04/11 12:00:03;;;;;;;11.40;9.50;;;20.50;46.90;;;;;;4974786;28;20038;-76
2022/04/11 12:05:33;;;;;;;9.32;8.38;;;20.70;47.60;;;;;;4989162;28;20057;-76
2022/04/11 12:08:04;;;;;;;10.02;8.80;;;20.80;45.20;;;;;;4994702;28;20038;-76
2022/04/11 12:10:31;;;;;;;9.35;8.40;;;20.40;45.90;;;;;;4988786;28;20193;-76
2022/04/11 12:12:57;;;;;;;11.23;8.60;;;20.30;49.80;;;;;;5007912;28;20042;-76
2022/04/11 12:15:23;;;;;;;9.73;8.48;;;20.50;49.80;;;;;;4967696;28;20042;-76
2022/04/11 12:17:50;;;;;;;10.90;9.77;;;20.80;42.10;;;;;;4939657;28;20042;-76
2022/04/11 12:20:19;;;;;;;11.07;9.88;;;20.20;45.60;;;;;;4941195;28;20544;-76
2022/04/11 12:23:04;;;;;;;10.75;9.70;;;19.90;49.40;;;;;;4978091;28;20049;-76
2022/04/11 12:25:35;;;;;;;10.65;9.60;;;20.30;48.30;;;;;;4958640;28;20034;-76
2022/04/11 12:28:21;;;;;;;10.50;9.43;;;20.50;50.40;;;;;;4974669;28;20054;-76
2022/04/11 12:31:12;;;;;;;10.30;9.30;;;21.00;47.90;;;;;;4955512;28;20059;-76
2022/04/11 12:33:40;;;;;;;9.88;8.50;;;21.20;50.30;;;;;;4939497;28;20490;-76
2022/04/11 12:36:17;;;;;;;10.70;9.02;;;21.20;45.40;;;;;;4963266;28;20117;-76
2022/04/11 12:38:48;;;;;;;12.60;9.60;;;21.00;45.30;;;;;;4993619;28;20168;-76
2022/04/11 12:41:24;;;;;;;11.20;9.32;;;20.80;45.80;;;;;;4994024;28;20042;-76
2022/04/11 12:44:07;;;;;;;12.45;10.77;;;20.50;44.30;;;;;;4984839;28;20081;-76
2022/04/11 12:46:34;;;;;;;;;;;20.20;48.90;;;;;;4979172;28;20038;-76
2022/04/11 12:49:01;;;;;;;11.40;10.25;;;20.30;48.40;;;;;;5010821;28;19918;-76
2022/04/11 12:51:28;;;;;;;12.70;11.30;;;20.00;45.00;;;;;;4978345;28;20057;-76
2022/04/11 12:54:01;;;;;;;11.93;10.73;;;19.50;49.10;;;;;;4978433;28;20044;-76
2022/04/11 12:56:41;;;;;;;11.27;9.65;;;19.50;50.30;;;;;;4978613;28;20504;-76
2022/04/11 12:59:08;;;;;;;10.73;9.77;;;19.90;45.60;;;;;;4997242;28;20129;-76
2022/04/11 13:01:50;;;;;;;10.50;9.50;;;20.00;47.80;;;;;;4996116;28;20046;-76
2022/04/11 13:04:15;;;;;;;11.05;9.98;;;20.00;45.70;;;;;;4997687;28;20050;-76
2022/04/11 13:06:41;;;;;;;12.25;10.95;;;19.90;44.70;;;;;;4997695;28;20045;-76
2022/04/11 13:09:06;;;;;;;12.63;11.32;;;19.70;47.30;;;;;;4997322;28;20551;-76
2022/04/11 13:11:40;;;;;;;12.50;11.23;;;19.50;49.50;;;;;;4993748;28;20116;-76
2022/04/11 13:14:06;;;;;;;12.50;11.20;;;19.80;47.30;;;;;;4961923;28;20045;-76
2022/04/11 13:19:15;;;;;;;13.73;12.02;;;19.70;46.80;;;;;;5010288;28;20049;-76
2022/04/11 13:21:40;;;;;;;13.07;11.88;;;19.40;46.90;;;;;;4977841;28;20050;-76
2022/04/11 13:24:06;;;;;;;14.45;12.13;;;19.30;46.50;;;;;;4987886;28;20048;-76
2022/04/11 13:26:32;;;;;;;13.93;12.48;;;19.10;48.60;;;;;;4997435;28;20408;-76